Aviation Digital Data Service (ADDS)

Output produced by METARs form (2047 UTC 20 August 2019)
found at http://www.aviationweather.gov/metar/data/
 
METAR text: LEAL 202030Z 03009KT 350V080 9999 FEW018 BKN036 27/21 Q1018 NOSIG
Conditions at: LEAL (ALICANTE/EL ALTE, ES) observed 2030 UTC 20 August 2019
Temperature: 27.0°C (81°F)
Dewpoint: 21.0°C (70°F) [RH = 70%]
Pressure (altimeter): 30.06 inches Hg (1018.0 mb)
Winds: from the NNE (30 degrees) at 10 MPH (9 knots; 4.6 m/s)
Visibility: 6 or more miles (10+ km)
Ceiling: 3600 feet AGL
Clouds: few clouds at 1800 feet AGL
broken clouds at 3600 feet AGL
Weather: no significant weather observed at this time

METAR text: LEAL 202000Z 02008KT 350V060 9999 FEW018 SCT032 27/20 Q1017 NOSIG
Conditions at: LEAL (ALICANTE/EL ALTE, ES) observed 2000 UTC 20 August 2019
Temperature: 27.0°C (81°F)
Dewpoint: 20.0°C (68°F) [RH = 66%]
Pressure (altimeter): 30.03 inches Hg (1017.0 mb)
Winds: from the NNE (20 degrees) at 9 MPH (8 knots; 4.1 m/s)
Visibility: 6 or more miles (10+ km)
Ceiling: at least 12,000 feet AGL
Clouds: few clouds at 1800 feet AGL
scattered clouds at 3200 feet AGL
Weather: no significant weather observed at this time

METAR text: LEAL 201930Z 02008KT 9999 FEW018 SCT032 27/20 Q1017 NOSIG
Conditions at: LEAL (ALICANTE/EL ALTE, ES) observed 1930 UTC 20 August 2019
Temperature: 27.0°C (81°F)
Dewpoint: 20.0°C (68°F) [RH = 66%]
Pressure (altimeter): 30.03 inches Hg (1017.0 mb)
Winds: from the NNE (20 degrees) at 9 MPH (8 knots; 4.1 m/s)
Visibility: 6 or more miles (10+ km)
Ceiling: at least 12,000 feet AGL
Clouds: few clouds at 1800 feet AGL
scattered clouds at 3200 feet AGL
Weather: no significant weather observed at this time

METAR text: LEAL 201900Z 06013KT 9999 FEW018 BKN049 27/21 Q1017 NOSIG
Conditions at: LEAL (ALICANTE/EL ALTE, ES) observed 1900 UTC 20 August 2019
Temperature: 27.0°C (81°F)
Dewpoint: 21.0°C (70°F) [RH = 70%]
Pressure (altimeter): 30.03 inches Hg (1017.0 mb)
Winds: from the ENE (60 degrees) at 15 MPH (13 knots; 6.7 m/s)
Visibility: 6 or more miles (10+ km)
Ceiling: 4900 feet AGL
Clouds: few clouds at 1800 feet AGL
broken clouds at 4900 feet AGL
Weather: no significant weather observed at this time

METAR text: LEAL 201830Z 06014KT 9999 FEW018 SCT040 27/21 Q1017 NOSIG
Conditions at: LEAL (ALICANTE/EL ALTE, ES) observed 1830 UTC 20 August 2019
Temperature: 27.0°C (81°F)
Dewpoint: 21.0°C (70°F) [RH = 70%]
Pressure (altimeter): 30.03 inches Hg (1017.0 mb)
Winds: from the ENE (60 degrees) at 16 MPH (14 knots; 7.2 m/s)
Visibility: 6 or more miles (10+ km)
Ceiling: at least 12,000 feet AGL
Clouds: few clouds at 1800 feet AGL
scattered clouds at 4000 feet AGL
Weather: no significant weather observed at this time

METAR text: LEAL 201800Z 07014KT 9999 FEW018 SCT040 28/22 Q1017 NOSIG
Conditions at: LEAL (ALICANTE/EL ALTE, ES) observed 1800 UTC 20 August 2019
Temperature: 28.0°C (82°F)
Dewpoint: 22.0°C (72°F) [RH = 70%]
Pressure (altimeter): 30.03 inches Hg (1017.0 mb)
Winds: from the ENE (70 degrees) at 16 MPH (14 knots; 7.2 m/s)
Visibility: 6 or more miles (10+ km)
Ceiling: at least 12,000 feet AGL
Clouds: few clouds at 1800 feet AGL
scattered clouds at 4000 feet AGL
Weather: no significant weather observed at this time

METAR text: LEAL 201730Z 06014KT 040V100 9999 FEW018 FEW030CB 28/21 Q1017 NOSIG
Conditions at: LEAL (ALICANTE/EL ALTE, ES) observed 1730 UTC 20 August 2019
Temperature: 28.0°C (82°F)
Dewpoint: 21.0°C (70°F) [RH = 66%]
Pressure (altimeter): 30.03 inches Hg (1017.0 mb)
Winds: from the ENE (60 degrees) at 16 MPH (14 knots; 7.2 m/s)
Visibility: 6 or more miles (10+ km)
Ceiling: at least 12,000 feet AGL
Clouds: few clouds at 1800 feet AGL
few clouds at 3000 feet AGL
Weather: no significant weather observed at this time

METAR text: LEAL 201700Z 06012KT 9999 FEW018 FEW030CB BKN035 28/22 Q1016 NOSIG
Conditions at: LEAL (ALICANTE/EL ALTE, ES) observed 1700 UTC 20 August 2019
Temperature: 28.0°C (82°F)
Dewpoint: 22.0°C (72°F) [RH = 70%]
Pressure (altimeter): 30.00 inches Hg (1016.0 mb)
Winds: from the ENE (60 degrees) at 14 MPH (12 knots; 6.2 m/s)
Visibility: 6 or more miles (10+ km)
Ceiling: 3500 feet AGL
Clouds: few clouds at 1800 feet AGL
few clouds at 3000 feet AGL
broken clouds at 3500 feet AGL
Weather: no significant weather observed at this time

METAR text: LEAL 201630Z 08018KT 9999 FEW018 FEW030CB BKN035 29/22 Q1016 NOSIG
Conditions at: LEAL (ALICANTE/EL ALTE, ES) observed 1630 UTC 20 August 2019
Temperature: 29.0°C (84°F)
Dewpoint: 22.0°C (72°F) [RH = 66%]
Pressure (altimeter): 30.00 inches Hg (1016.0 mb)
Winds: from the E (80 degrees) at 21 MPH (18 knots; 9.3 m/s)
Visibility: 6 or more miles (10+ km)
Ceiling: 3500 feet AGL
Clouds: few clouds at 1800 feet AGL
few clouds at 3000 feet AGL
broken clouds at 3500 feet AGL
Weather: no significant weather observed at this time

METAR text: LEAL 201600Z 09018KT 060V120 9999 SCT018 FEW030CB 29/23 Q1016 NOSIG
Conditions at: LEAL (ALICANTE/EL ALTE, ES) observed 1600 UTC 20 August 2019
Temperature: 29.0°C (84°F)
Dewpoint: 23.0°C (73°F) [RH = 70%]
Pressure (altimeter): 30.00 inches Hg (1016.0 mb)
Winds: from the E (90 degrees) at 21 MPH (18 knots; 9.3 m/s)
Visibility: 6 or more miles (10+ km)
Ceiling: at least 12,000 feet AGL
Clouds: scattered clouds at 1800 feet AGL
few clouds at 3000 feet AGL
Weather: no significant weather observed at this time

METAR text: LEAL 201530Z 09016KT 9999 FEW020 SCT045 29/23 Q1016 TEMPO FEW030CB
Conditions at: LEAL (ALICANTE/EL ALTE, ES) observed 1530 UTC 20 August 2019
Temperature: 29.0°C (84°F)
Dewpoint: 23.0°C (73°F) [RH = 70%]
Pressure (altimeter): 30.00 inches Hg (1016.0 mb)
Winds: from the E (90 degrees) at 18 MPH (16 knots; 8.2 m/s)
Visibility: 6 or more miles (10+ km)
Ceiling: at least 12,000 feet AGL
Clouds: few clouds at 2000 feet AGL
scattered clouds at 4500 feet AGL
Weather: no significant weather observed at this time

METAR text: LEAL 201500Z 08013KT 060V120 9999 FEW020 SCT045 29/23 Q1016 NOSIG
Conditions at: LEAL (ALICANTE/EL ALTE, ES) observed 1500 UTC 20 August 2019
Temperature: 29.0°C (84°F)
Dewpoint: 23.0°C (73°F) [RH = 70%]
Pressure (altimeter): 30.00 inches Hg (1016.0 mb)
Winds: from the E (80 degrees) at 15 MPH (13 knots; 6.7 m/s)
Visibility: 6 or more miles (10+ km)
Ceiling: at least 12,000 feet AGL
Clouds: few clouds at 2000 feet AGL
scattered clouds at 4500 feet AGL
Weather: no significant weather observed at this time

METAR text: LEAL 201430Z 10010KT 070V140 9999 FEW020 SCT045 29/22 Q1016 NOSIG
Conditions at: LEAL (ALICANTE/EL ALTE, ES) observed 1430 UTC 20 August 2019
Temperature: 29.0°C (84°F)
Dewpoint: 22.0°C (72°F) [RH = 66%]
Pressure (altimeter): 30.00 inches Hg (1016.0 mb)
Winds: from the E (100 degrees) at 12 MPH (10 knots; 5.1 m/s)
Visibility: 6 or more miles (10+ km)
Ceiling: at least 12,000 feet AGL
Clouds: few clouds at 2000 feet AGL
scattered clouds at 4500 feet AGL
Weather: no significant weather observed at this time

METAR text: LEAL 201400Z 08010KT 050V140 9999 FEW025 30/22 Q1016 NOSIG
Conditions at: LEAL (ALICANTE/EL ALTE, ES) observed 1400 UTC 20 August 2019
Temperature: 30.0°C (86°F)
Dewpoint: 22.0°C (72°F) [RH = 62%]
Pressure (altimeter): 30.00 inches Hg (1016.0 mb)
Winds: from the E (80 degrees) at 12 MPH (10 knots; 5.1 m/s)
Visibility: 6 or more miles (10+ km)
Ceiling: at least 12,000 feet AGL
Clouds: few clouds at 2500 feet AGL
Weather: no significant weather observed at this time

METAR text: LEAL 201330Z 10010KT 050V140 9999 FEW025 30/22 Q1016 NOSIG
Conditions at: LEAL (ALICANTE/EL ALTE, ES) observed 1330 UTC 20 August 2019
Temperature: 30.0°C (86°F)
Dewpoint: 22.0°C (72°F) [RH = 62%]
Pressure (altimeter): 30.00 inches Hg (1016.0 mb)
Winds: from the E (100 degrees) at 12 MPH (10 knots; 5.1 m/s)
Visibility: 6 or more miles (10+ km)
Ceiling: at least 12,000 feet AGL
Clouds: few clouds at 2500 feet AGL
Weather: no significant weather observed at this time

METAR text: LEAL 201300Z 09010KT 060V120 9999 FEW025 30/22 Q1016 NOSIG
Conditions at: LEAL (ALICANTE/EL ALTE, ES) observed 1300 UTC 20 August 2019
Temperature: 30.0°C (86°F)
Dewpoint: 22.0°C (72°F) [RH = 62%]
Pressure (altimeter): 30.00 inches Hg (1016.0 mb)
Winds: from the E (90 degrees) at 12 MPH (10 knots; 5.1 m/s)
Visibility: 6 or more miles (10+ km)
Ceiling: at least 12,000 feet AGL
Clouds: few clouds at 2500 feet AGL
Weather: no significant weather observed at this time

METAR text: LEAL 201230Z 10010KT 070V150 9999 FEW025 30/22 Q1016 NOSIG
Conditions at: LEAL (ALICANTE/EL ALTE, ES) observed 1230 UTC 20 August 2019
Temperature: 30.0°C (86°F)
Dewpoint: 22.0°C (72°F) [RH = 62%]
Pressure (altimeter): 30.00 inches Hg (1016.0 mb)
Winds: from the E (100 degrees) at 12 MPH (10 knots; 5.1 m/s)
Visibility: 6 or more miles (10+ km)
Ceiling: at least 12,000 feet AGL
Clouds: few clouds at 2500 feet AGL
Weather: no significant weather observed at this time

METAR text: LEAL 201200Z 10010KT 060V150 9999 FEW025 30/21 Q1016 NOSIG
Conditions at: LEAL (ALICANTE/EL ALTE, ES) observed 1200 UTC 20 August 2019
Temperature: 30.0°C (86°F)
Dewpoint: 21.0°C (70°F) [RH = 59%]
Pressure (altimeter): 30.00 inches Hg (1016.0 mb)
Winds: from the E (100 degrees) at 12 MPH (10 knots; 5.1 m/s)
Visibility: 6 or more miles (10+ km)
Ceiling: at least 12,000 feet AGL
Clouds: few clouds at 2500 feet AGL
Weather: no significant weather observed at this time

METAR text: LEAL 201130Z 10010KT 070V130 9999 FEW025 29/22 Q1016 NOSIG
Conditions at: LEAL (ALICANTE/EL ALTE, ES) observed 1130 UTC 20 August 2019
Temperature: 29.0°C (84°F)
Dewpoint: 22.0°C (72°F) [RH = 66%]
Pressure (altimeter): 30.00 inches Hg (1016.0 mb)
Winds: from the E (100 degrees) at 12 MPH (10 knots; 5.1 m/s)
Visibility: 6 or more miles (10+ km)
Ceiling: at least 12,000 feet AGL
Clouds: few clouds at 2500 feet AGL
Weather: no significant weather observed at this time

METAR text: LEAL 201100Z 09010KT 060V130 9999 FEW025 30/21 Q1016 NOSIG
Conditions at: LEAL (ALICANTE/EL ALTE, ES) observed 1100 UTC 20 August 2019
Temperature: 30.0°C (86°F)
Dewpoint: 21.0°C (70°F) [RH = 59%]
Pressure (altimeter): 30.00 inches Hg (1016.0 mb)
Winds: from the E (90 degrees) at 12 MPH (10 knots; 5.1 m/s)
Visibility: 6 or more miles (10+ km)
Ceiling: at least 12,000 feet AGL
Clouds: few clouds at 2500 feet AGL
Weather: no significant weather observed at this time

METAR text: LEAL 201030Z 09009KT 030V150 9999 FEW025 29/22 Q1016 NOSIG
Conditions at: LEAL (ALICANTE/EL ALTE, ES) observed 1030 UTC 20 August 2019
Temperature: 29.0°C (84°F)
Dewpoint: 22.0°C (72°F) [RH = 66%]
Pressure (altimeter): 30.00 inches Hg (1016.0 mb)
Winds: from the E (90 degrees) at 10 MPH (9 knots; 4.6 m/s)
Visibility: 6 or more miles (10+ km)
Ceiling: at least 12,000 feet AGL
Clouds: few clouds at 2500 feet AGL
Weather: no significant weather observed at this time

METAR text: LEAL 201000Z 08008KT 030V110 9999 FEW025 29/21 Q1016 NOSIG
Conditions at: LEAL (ALICANTE/EL ALTE, ES) observed 1000 UTC 20 August 2019
Temperature: 29.0°C (84°F)
Dewpoint: 21.0°C (70°F) [RH = 62%]
Pressure (altimeter): 30.00 inches Hg (1016.0 mb)
Winds: from the E (80 degrees) at 9 MPH (8 knots; 4.1 m/s)
Visibility: 6 or more miles (10+ km)
Ceiling: at least 12,000 feet AGL
Clouds: few clouds at 2500 feet AGL
Weather: no significant weather observed at this time

METAR text: LEAL 200930Z 09008KT 050V130 9999 FEW020 28/22 Q1016 NOSIG
Conditions at: LEAL (ALICANTE/EL ALTE, ES) observed 0930 UTC 20 August 2019
Temperature: 28.0°C (82°F)
Dewpoint: 22.0°C (72°F) [RH = 70%]
Pressure (altimeter): 30.00 inches Hg (1016.0 mb)
Winds: from the E (90 degrees) at 9 MPH (8 knots; 4.1 m/s)
Visibility: 6 or more miles (10+ km)
Ceiling: at least 12,000 feet AGL
Clouds: few clouds at 2000 feet AGL
Weather: no significant weather observed at this time

METAR text: LEAL 200900Z 09007KT 060V150 9999 FEW020 29/21 Q1015 NOSIG
Conditions at: LEAL (ALICANTE/EL ALTE, ES) observed 0900 UTC 20 August 2019
Temperature: 29.0°C (84°F)
Dewpoint: 21.0°C (70°F) [RH = 62%]
Pressure (altimeter): 29.97 inches Hg (1015.0 mb)
Winds: from the E (90 degrees) at 8 MPH (7 knots; 3.6 m/s)
Visibility: 6 or more miles (10+ km)
Ceiling: at least 12,000 feet AGL
Clouds: few clouds at 2000 feet AGL
Weather: no significant weather observed at this time

METAR text: LEAL 200830Z 09009KT 9999 FEW020 SCT035 29/22 Q1015 NOSIG
Conditions at: LEAL (ALICANTE/EL ALTE, ES) observed 0830 UTC 20 August 2019
Temperature: 29.0°C (84°F)
Dewpoint: 22.0°C (72°F) [RH = 66%]
Pressure (altimeter): 29.97 inches Hg (1015.0 mb)
Winds: from the E (90 degrees) at 10 MPH (9 knots; 4.6 m/s)
Visibility: 6 or more miles (10+ km)
Ceiling: at least 12,000 feet AGL
Clouds: few clouds at 2000 feet AGL
scattered clouds at 3500 feet AGL
Weather: no significant weather observed at this time

METAR text: LEAL 200800Z VRB01KT 9999 FEW020 29/20 Q1015 NOSIG
Conditions at: LEAL (ALICANTE/EL ALTE, ES) observed 0800 UTC 20 August 2019
Temperature: 29.0°C (84°F)
Dewpoint: 20.0°C (68°F) [RH = 58%]
Pressure (altimeter): 29.97 inches Hg (1015.0 mb)
Winds: variable direction winds at 1 MPH (1 knots; 0.5 m/s)
Visibility: 6 or more miles (10+ km)
Ceiling: at least 12,000 feet AGL
Clouds: few clouds at 2000 feet AGL
Weather: no significant weather observed at this time

METAR text: LEAL 200730Z VRB01KT 9999 FEW020 28/21 Q1015 NOSIG
Conditions at: LEAL (ALICANTE/EL ALTE, ES) observed 0730 UTC 20 August 2019
Temperature: 28.0°C (82°F)
Dewpoint: 21.0°C (70°F) [RH = 66%]
Pressure (altimeter): 29.97 inches Hg (1015.0 mb)
Winds: variable direction winds at 1 MPH (1 knots; 0.5 m/s)
Visibility: 6 or more miles (10+ km)
Ceiling: at least 12,000 feet AGL
Clouds: few clouds at 2000 feet AGL
Weather: no significant weather observed at this time

METAR text: LEAL 200700Z VRB02KT 9999 FEW020 27/22 Q1014 NOSIG
Conditions at: LEAL (ALICANTE/EL ALTE, ES) observed 0700 UTC 20 August 2019
Temperature: 27.0°C (81°F)
Dewpoint: 22.0°C (72°F) [RH = 74%]
Pressure (altimeter): 29.94 inches Hg (1014.0 mb)
Winds: variable direction winds at 2 MPH (2 knots; 1.0 m/s)
Visibility: 6 or more miles (10+ km)
Ceiling: at least 12,000 feet AGL
Clouds: few clouds at 2000 feet AGL
Weather: no significant weather observed at this time

METAR text: LEAL 200630Z VRB02KT 9999 FEW020 26/22 Q1014 NOSIG
Conditions at: LEAL (ALICANTE/EL ALTE, ES) observed 0630 UTC 20 August 2019
Temperature: 26.0°C (79°F)
Dewpoint: 22.0°C (72°F) [RH = 79%]
Pressure (altimeter): 29.94 inches Hg (1014.0 mb)
Winds: variable direction winds at 2 MPH (2 knots; 1.0 m/s)
Visibility: 6 or more miles (10+ km)
Ceiling: at least 12,000 feet AGL
Clouds: few clouds at 2000 feet AGL
Weather: no significant weather observed at this time

METAR text: LEAL 200600Z 29003KT 250V330 9999 FEW020 25/22 Q1014 NOSIG
Conditions at: LEAL (ALICANTE/EL ALTE, ES) observed 0600 UTC 20 August 2019
Temperature: 25.0°C (77°F)
Dewpoint: 22.0°C (72°F) [RH = 83%]
Pressure (altimeter): 29.94 inches Hg (1014.0 mb)
Winds: from the WNW (290 degrees) at 3 MPH (3 knots; 1.5 m/s)
Visibility: 6 or more miles (10+ km)
Ceiling: at least 12,000 feet AGL
Clouds: few clouds at 2000 feet AGL
Weather: no significant weather observed at this time

METAR text: LEAL 200530Z 32004KT 250V020 9999 FEW020 25/22 Q1014 NOSIG
Conditions at: LEAL (ALICANTE/EL ALTE, ES) observed 0530 UTC 20 August 2019
Temperature: 25.0°C (77°F)
Dewpoint: 22.0°C (72°F) [RH = 83%]
Pressure (altimeter): 29.94 inches Hg (1014.0 mb)
Winds: from the NW (320 degrees) at 5 MPH (4 knots; 2.1 m/s)
Visibility: 6 or more miles (10+ km)
Ceiling: at least 12,000 feet AGL
Clouds: few clouds at 2000 feet AGL
Weather: no significant weather observed at this time

METAR text: LEAL 200500Z 34004KT 290V030 9999 FEW020 25/22 Q1014 NOSIG
Conditions at: LEAL (ALICANTE/EL ALTE, ES) observed 0500 UTC 20 August 2019
Temperature: 25.0°C (77°F)
Dewpoint: 22.0°C (72°F) [RH = 83%]
Pressure (altimeter): 29.94 inches Hg (1014.0 mb)
Winds: from the NNW (340 degrees) at 5 MPH (4 knots; 2.1 m/s)
Visibility: 6 or more miles (10+ km)
Ceiling: at least 12,000 feet AGL
Clouds: few clouds at 2000 feet AGL
Weather: no significant weather observed at this time

METAR text: LEAL 200430Z 00000KT CAVOK 24/22 Q1013 NOSIG
Conditions at: LEAL (ALICANTE/EL ALTE, ES) observed 0430 UTC 20 August 2019
Temperature: 24.0°C (75°F)
Dewpoint: 22.0°C (72°F) [RH = 89%]
Pressure (altimeter): 29.91 inches Hg (1013.0 mb)
Winds: calm
Visibility: 6 or more miles (10+ km)
Ceiling: ceiling and visibility are OK
Clouds: unknown
Weather: no significant weather observed at this time

METAR text: LEAL 200400Z 30003KT 9999 FEW030 24/22 Q1014 NOSIG
Conditions at: LEAL (ALICANTE/EL ALTE, ES) observed 0400 UTC 20 August 2019
Temperature: 24.0°C (75°F)
Dewpoint: 22.0°C (72°F) [RH = 89%]
Pressure (altimeter): 29.94 inches Hg (1014.0 mb)
Winds: from the WNW (300 degrees) at 3 MPH (3 knots; 1.5 m/s)
Visibility: 6 or more miles (10+ km)
Ceiling: at least 12,000 feet AGL
Clouds: few clouds at 3000 feet AGL
Weather: no significant weather observed at this time

METAR text: LEAL 200330Z 27002KT 9999 SCT030 25/22 Q1014 NOSIG
Conditions at: LEAL (ALICANTE/EL ALTE, ES) observed 0330 UTC 20 August 2019
Temperature: 25.0°C (77°F)
Dewpoint: 22.0°C (72°F) [RH = 83%]
Pressure (altimeter): 29.94 inches Hg (1014.0 mb)
Winds: from the W (270 degrees) at 2 MPH (2 knots; 1.0 m/s)
Visibility: 6 or more miles (10+ km)
Ceiling: at least 12,000 feet AGL
Clouds: scattered clouds at 3000 feet AGL
Weather: no significant weather observed at this time

METAR text: LEAL 200300Z 11003KT 070V140 9999 BKN030 26/23 Q1014 NOSIG
Conditions at: LEAL (ALICANTE/EL ALTE, ES) observed 0300 UTC 20 August 2019
Temperature: 26.0°C (79°F)
Dewpoint: 23.0°C (73°F) [RH = 84%]
Pressure (altimeter): 29.94 inches Hg (1014.0 mb)
Winds: from the ESE (110 degrees) at 3 MPH (3 knots; 1.5 m/s)
Visibility: 6 or more miles (10+ km)
Ceiling: 3000 feet AGL
Clouds: broken clouds at 3000 feet AGL
Weather: no significant weather observed at this time

METAR text: LEAL 200230Z 10004KT 9999 SCT030 26/22 Q1014 NOSIG
Conditions at: LEAL (ALICANTE/EL ALTE, ES) observed 0230 UTC 20 August 2019
Temperature: 26.0°C (79°F)
Dewpoint: 22.0°C (72°F) [RH = 79%]
Pressure (altimeter): 29.94 inches Hg (1014.0 mb)
Winds: from the E (100 degrees) at 5 MPH (4 knots; 2.1 m/s)
Visibility: 6 or more miles (10+ km)
Ceiling: at least 12,000 feet AGL
Clouds: scattered clouds at 3000 feet AGL
Weather: no significant weather observed at this time

METAR text: LEAL 200200Z 11004KT 080V140 9999 SCT029 26/22 Q1014 NOSIG
Conditions at: LEAL (ALICANTE/EL ALTE, ES) observed 0200 UTC 20 August 2019
Temperature: 26.0°C (79°F)
Dewpoint: 22.0°C (72°F) [RH = 79%]
Pressure (altimeter): 29.94 inches Hg (1014.0 mb)
Winds: from the ESE (110 degrees) at 5 MPH (4 knots; 2.1 m/s)
Visibility: 6 or more miles (10+ km)
Ceiling: at least 12,000 feet AGL
Clouds: scattered clouds at 2900 feet AGL
Weather: no significant weather observed at this time

METAR text: LEAL 200130Z 10004KT 9999 SCT027 26/23 Q1014 NOSIG
Conditions at: LEAL (ALICANTE/EL ALTE, ES) observed 0130 UTC 20 August 2019
Temperature: 26.0°C (79°F)
Dewpoint: 23.0°C (73°F) [RH = 84%]
Pressure (altimeter): 29.94 inches Hg (1014.0 mb)
Winds: from the E (100 degrees) at 5 MPH (4 knots; 2.1 m/s)
Visibility: 6 or more miles (10+ km)
Ceiling: at least 12,000 feet AGL
Clouds: scattered clouds at 2700 feet AGL
Weather: no significant weather observed at this time

METAR text: LEAL 200100Z 10006KT 9999 FEW014 BKN026 26/23 Q1014 NOSIG
Conditions at: LEAL (ALICANTE/EL ALTE, ES) observed 0100 UTC 20 August 2019
Temperature: 26.0°C (79°F)
Dewpoint: 23.0°C (73°F) [RH = 84%]
Pressure (altimeter): 29.94 inches Hg (1014.0 mb)
Winds: from the E (100 degrees) at 7 MPH (6 knots; 3.1 m/s)
Visibility: 6 or more miles (10+ km)
Ceiling: 2600 feet AGL
Clouds: few clouds at 1400 feet AGL
broken clouds at 2600 feet AGL
Weather: no significant weather observed at this time

METAR text: LEAL 200030Z 10006KT 070V140 9999 SCT014 BKN026 27/23 Q1014 NOSIG
Conditions at: LEAL (ALICANTE/EL ALTE, ES) observed 0030 UTC 20 August 2019
Temperature: 27.0°C (81°F)
Dewpoint: 23.0°C (73°F) [RH = 79%]
Pressure (altimeter): 29.94 inches Hg (1014.0 mb)
Winds: from the E (100 degrees) at 7 MPH (6 knots; 3.1 m/s)
Visibility: 6 or more miles (10+ km)
Ceiling: 2600 feet AGL
Clouds: scattered clouds at 1400 feet AGL
broken clouds at 2600 feet AGL
Weather: no significant weather observed at this time

METAR text: LEAL 200000Z 10006KT 9999 SCT014 BKN026 27/23 Q1014 NOSIG
Conditions at: LEAL (ALICANTE/EL ALTE, ES) observed 0000 UTC 20 August 2019
Temperature: 27.0°C (81°F)
Dewpoint: 23.0°C (73°F) [RH = 79%]
Pressure (altimeter): 29.94 inches Hg (1014.0 mb)
Winds: from the E (100 degrees) at 7 MPH (6 knots; 3.1 m/s)
Visibility: 6 or more miles (10+ km)
Ceiling: 2600 feet AGL
Clouds: scattered clouds at 1400 feet AGL
broken clouds at 2600 feet AGL
Weather: no significant weather observed at this time

METAR text: LEAL 192330Z 10006KT 070V140 9999 BKN014 BKN024 27/23 Q1014 NOSIG
Conditions at: LEAL (ALICANTE/EL ALTE, ES) observed 2330 UTC 19 August 2019
Temperature: 27.0°C (81°F)
Dewpoint: 23.0°C (73°F) [RH = 79%]
Pressure (altimeter): 29.94 inches Hg (1014.0 mb)
Winds: from the E (100 degrees) at 7 MPH (6 knots; 3.1 m/s)
Visibility: 6 or more miles (10+ km)
Ceiling: 1400 feet AGL
Clouds: broken clouds at 1400 feet AGL
broken clouds at 2400 feet AGL
Weather: no significant weather observed at this time

METAR text: LEAL 192300Z 09005KT 070V140 9999 BKN014 BKN024 27/23 Q1014 NOSIG
Conditions at: LEAL (ALICANTE/EL ALTE, ES) observed 2300 UTC 19 August 2019
Temperature: 27.0°C (81°F)
Dewpoint: 23.0°C (73°F) [RH = 79%]
Pressure (altimeter): 29.94 inches Hg (1014.0 mb)
Winds: from the E (90 degrees) at 6 MPH (5 knots; 2.6 m/s)
Visibility: 6 or more miles (10+ km)
Ceiling: 1400 feet AGL
Clouds: broken clouds at 1400 feet AGL
broken clouds at 2400 feet AGL
Weather: no significant weather observed at this time

METAR text: LEAL 192230Z 08006KT 050V110 9999 SCT014 BKN024 27/23 Q1014 NOSIG
Conditions at: LEAL (ALICANTE/EL ALTE, ES) observed 2230 UTC 19 August 2019
Temperature: 27.0°C (81°F)
Dewpoint: 23.0°C (73°F) [RH = 79%]
Pressure (altimeter): 29.94 inches Hg (1014.0 mb)
Winds: from the E (80 degrees) at 7 MPH (6 knots; 3.1 m/s)
Visibility: 6 or more miles (10+ km)
Ceiling: 2400 feet AGL
Clouds: scattered clouds at 1400 feet AGL
broken clouds at 2400 feet AGL
Weather: no significant weather observed at this time

METAR text: LEAL 192200Z 09005KT 070V130 9999 BKN014 BKN024 27/23 Q1015 NOSIG
Conditions at: LEAL (ALICANTE/EL ALTE, ES) observed 2200 UTC 19 August 2019
Temperature: 27.0°C (81°F)
Dewpoint: 23.0°C (73°F) [RH = 79%]
Pressure (altimeter): 29.97 inches Hg (1015.0 mb)
Winds: from the E (90 degrees) at 6 MPH (5 knots; 2.6 m/s)
Visibility: 6 or more miles (10+ km)
Ceiling: 1400 feet AGL
Clouds: broken clouds at 1400 feet AGL
broken clouds at 2400 feet AGL
Weather: no significant weather observed at this time

METAR text: LEAL 192130Z 10005KT 9999 SCT014 BKN024 27/24 Q1015 NOSIG
Conditions at: LEAL (ALICANTE/EL ALTE, ES) observed 2130 UTC 19 August 2019
Temperature: 27.0°C (81°F)
Dewpoint: 24.0°C (75°F) [RH = 84%]
Pressure (altimeter): 29.97 inches Hg (1015.0 mb)
Winds: from the E (100 degrees) at 6 MPH (5 knots; 2.6 m/s)
Visibility: 6 or more miles (10+ km)
Ceiling: 2400 feet AGL
Clouds: scattered clouds at 1400 feet AGL
broken clouds at 2400 feet AGL
Weather: no significant weather observed at this time

METAR text: LEAL 192100Z 08007KT 9999 SCT014 BKN024 27/24 Q1014 NOSIG
Conditions at: LEAL (ALICANTE/EL ALTE, ES) observed 2100 UTC 19 August 2019
Temperature: 27.0°C (81°F)
Dewpoint: 24.0°C (75°F) [RH = 84%]
Pressure (altimeter): 29.94 inches Hg (1014.0 mb)
Winds: from the E (80 degrees) at 8 MPH (7 knots; 3.6 m/s)
Visibility: 6 or more miles (10+ km)
Ceiling: 2400 feet AGL
Clouds: scattered clouds at 1400 feet AGL
broken clouds at 2400 feet AGL
Weather: no significant weather observed at this time

METAR text: LEAL 192030Z 08008KT 9999 SCT014 BKN024 27/24 Q1014 NOSIG
Conditions at: LEAL (ALICANTE/EL ALTE, ES) observed 2030 UTC 19 August 2019
Temperature: 27.0°C (81°F)
Dewpoint: 24.0°C (75°F) [RH = 84%]
Pressure (altimeter): 29.94 inches Hg (1014.0 mb)
Winds: from the E (80 degrees) at 9 MPH (8 knots; 4.1 m/s)
Visibility: 6 or more miles (10+ km)
Ceiling: 2400 feet AGL
Clouds: scattered clouds at 1400 feet AGL
broken clouds at 2400 feet AGL
Weather: no significant weather observed at this time

METAR text: LEAL 192000Z 08008KT 9999 FEW014 BKN024 27/24 Q1014 NOSIG
Conditions at: LEAL (ALICANTE/EL ALTE, ES) observed 2000 UTC 19 August 2019
Temperature: 27.0°C (81°F)
Dewpoint: 24.0°C (75°F) [RH = 84%]
Pressure (altimeter): 29.94 inches Hg (1014.0 mb)
Winds: from the E (80 degrees) at 9 MPH (8 knots; 4.1 m/s)
Visibility: 6 or more miles (10+ km)
Ceiling: 2400 feet AGL
Clouds: few clouds at 1400 feet AGL
broken clouds at 2400 feet AGL
Weather: no significant weather observed at this time

METAR text: LEAL 191930Z 08008KT 050V110 9999 SCT014 BKN024 27/24 Q1014 NOSIG
Conditions at: LEAL (ALICANTE/EL ALTE, ES) observed 1930 UTC 19 August 2019
Temperature: 27.0°C (81°F)
Dewpoint: 24.0°C (75°F) [RH = 84%]
Pressure (altimeter): 29.94 inches Hg (1014.0 mb)
Winds: from the E (80 degrees) at 9 MPH (8 knots; 4.1 m/s)
Visibility: 6 or more miles (10+ km)
Ceiling: 2400 feet AGL
Clouds: scattered clouds at 1400 feet AGL
broken clouds at 2400 feet AGL
Weather: no significant weather observed at this time

METAR text: LEAL 191900Z 08008KT 050V110 9999 SCT014 BKN024 27/24 Q1014 NOSIG
Conditions at: LEAL (ALICANTE/EL ALTE, ES) observed 1900 UTC 19 August 2019
Temperature: 27.0°C (81°F)
Dewpoint: 24.0°C (75°F) [RH = 84%]
Pressure (altimeter): 29.94 inches Hg (1014.0 mb)
Winds: from the E (80 degrees) at 9 MPH (8 knots; 4.1 m/s)
Visibility: 6 or more miles (10+ km)
Ceiling: 2400 feet AGL
Clouds: scattered clouds at 1400 feet AGL
broken clouds at 2400 feet AGL
Weather: no significant weather observed at this time

METAR text: LEAL 191830Z 07009KT 040V100 9999 BKN014 27/24 Q1013 NOSIG
Conditions at: LEAL (ALICANTE/EL ALTE, ES) observed 1830 UTC 19 August 2019
Temperature: 27.0°C (81°F)
Dewpoint: 24.0°C (75°F) [RH = 84%]
Pressure (altimeter): 29.91 inches Hg (1013.0 mb)
Winds: from the ENE (70 degrees) at 10 MPH (9 knots; 4.6 m/s)
Visibility: 6 or more miles (10+ km)
Ceiling: 1400 feet AGL
Clouds: broken clouds at 1400 feet AGL
Weather: no significant weather observed at this time

METAR text: LEAL 191800Z 09010KT 050V120 9999 FEW014 SCT018TCU 27/24 Q1013 NOSIG
Conditions at: LEAL (ALICANTE/EL ALTE, ES) observed 1800 UTC 19 August 2019
Temperature: 27.0°C (81°F)
Dewpoint: 24.0°C (75°F) [RH = 84%]
Pressure (altimeter): 29.91 inches Hg (1013.0 mb)
Winds: from the E (90 degrees) at 12 MPH (10 knots; 5.1 m/s)
Visibility: 6 or more miles (10+ km)
Ceiling: at least 12,000 feet AGL
Clouds: few clouds at 1400 feet AGL
scattered clouds at 1800 feet AGL
Weather: no significant weather observed at this time

METAR text: LEAL 191730Z 08011KT 9999 BKN014 28/23 Q1013 NOSIG
Conditions at: LEAL (ALICANTE/EL ALTE, ES) observed 1730 UTC 19 August 2019
Temperature: 28.0°C (82°F)
Dewpoint: 23.0°C (73°F) [RH = 74%]
Pressure (altimeter): 29.91 inches Hg (1013.0 mb)
Winds: from the E (80 degrees) at 13 MPH (11 knots; 5.7 m/s)
Visibility: 6 or more miles (10+ km)
Ceiling: 1400 feet AGL
Clouds: broken clouds at 1400 feet AGL
Weather: no significant weather observed at this time

METAR text: LEAL 191700Z 09011KT 060V130 9999 SCT014 28/24 Q1013 NOSIG
Conditions at: LEAL (ALICANTE/EL ALTE, ES) observed 1700 UTC 19 August 2019
Temperature: 28.0°C (82°F)
Dewpoint: 24.0°C (75°F) [RH = 79%]
Pressure (altimeter): 29.91 inches Hg (1013.0 mb)
Winds: from the E (90 degrees) at 13 MPH (11 knots; 5.7 m/s)
Visibility: 6 or more miles (10+ km)
Ceiling: at least 12,000 feet AGL
Clouds: scattered clouds at 1400 feet AGL
Weather: no significant weather observed at this time

METAR text: LEAL 191630Z 09011KT 060V120 9999 SCT014 28/24 Q1013 NOSIG
Conditions at: LEAL (ALICANTE/EL ALTE, ES) observed 1630 UTC 19 August 2019
Temperature: 28.0°C (82°F)
Dewpoint: 24.0°C (75°F) [RH = 79%]
Pressure (altimeter): 29.91 inches Hg (1013.0 mb)
Winds: from the E (90 degrees) at 13 MPH (11 knots; 5.7 m/s)
Visibility: 6 or more miles (10+ km)
Ceiling: at least 12,000 feet AGL
Clouds: scattered clouds at 1400 feet AGL
Weather: no significant weather observed at this time

METAR text: LEAL 191600Z 09010KT 070V130 9999 FEW014 SCT018 28/23 Q1013 NOSIG
Conditions at: LEAL (ALICANTE/EL ALTE, ES) observed 1600 UTC 19 August 2019
Temperature: 28.0°C (82°F)
Dewpoint: 23.0°C (73°F) [RH = 74%]
Pressure (altimeter): 29.91 inches Hg (1013.0 mb)
Winds: from the E (90 degrees) at 12 MPH (10 knots; 5.1 m/s)
Visibility: 6 or more miles (10+ km)
Ceiling: at least 12,000 feet AGL
Clouds: few clouds at 1400 feet AGL
scattered clouds at 1800 feet AGL
Weather: no significant weather observed at this time

METAR text: LEAL 191530Z 09010KT 060V140 9999 FEW014 SCT018TCU 29/23 Q1013 NOSIG
Conditions at: LEAL (ALICANTE/EL ALTE, ES) observed 1530 UTC 19 August 2019
Temperature: 29.0°C (84°F)
Dewpoint: 23.0°C (73°F) [RH = 70%]
Pressure (altimeter): 29.91 inches Hg (1013.0 mb)
Winds: from the E (90 degrees) at 12 MPH (10 knots; 5.1 m/s)
Visibility: 6 or more miles (10+ km)
Ceiling: at least 12,000 feet AGL
Clouds: few clouds at 1400 feet AGL
scattered clouds at 1800 feet AGL
Weather: no significant weather observed at this time

METAR text: LEAL 191500Z 09010KT 050V140 9999 FEW014 SCT018TCU 29/23 Q1014 NOSIG
Conditions at: LEAL (ALICANTE/EL ALTE, ES) observed 1500 UTC 19 August 2019
Temperature: 29.0°C (84°F)
Dewpoint: 23.0°C (73°F) [RH = 70%]
Pressure (altimeter): 29.94 inches Hg (1014.0 mb)
Winds: from the E (90 degrees) at 12 MPH (10 knots; 5.1 m/s)
Visibility: 6 or more miles (10+ km)
Ceiling: at least 12,000 feet AGL
Clouds: few clouds at 1400 feet AGL
scattered clouds at 1800 feet AGL
Weather: no significant weather observed at this time

METAR text: LEAL 191430Z 09009KT 050V160 9999 FEW014 SCT018TCU 28/24 Q1014 NOSIG
Conditions at: LEAL (ALICANTE/EL ALTE, ES) observed 1430 UTC 19 August 2019
Temperature: 28.0°C (82°F)
Dewpoint: 24.0°C (75°F) [RH = 79%]
Pressure (altimeter): 29.94 inches Hg (1014.0 mb)
Winds: from the E (90 degrees) at 10 MPH (9 knots; 4.6 m/s)
Visibility: 6 or more miles (10+ km)
Ceiling: at least 12,000 feet AGL
Clouds: few clouds at 1400 feet AGL
scattered clouds at 1800 feet AGL
Weather: no significant weather observed at this time

METAR text: LEAL 191400Z 10010KT 070V160 9999 FEW014 SCT018 29/24 Q1014 NOSIG
Conditions at: LEAL (ALICANTE/EL ALTE, ES) observed 1400 UTC 19 August 2019
Temperature: 29.0°C (84°F)
Dewpoint: 24.0°C (75°F) [RH = 74%]
Pressure (altimeter): 29.94 inches Hg (1014.0 mb)
Winds: from the E (100 degrees) at 12 MPH (10 knots; 5.1 m/s)
Visibility: 6 or more miles (10+ km)
Ceiling: at least 12,000 feet AGL
Clouds: few clouds at 1400 feet AGL
scattered clouds at 1800 feet AGL
Weather: no significant weather observed at this time

METAR text: LEAL 191330Z 10011KT 070V150 9999 SCT016 29/24 Q1014 NOSIG
Conditions at: LEAL (ALICANTE/EL ALTE, ES) observed 1330 UTC 19 August 2019
Temperature: 29.0°C (84°F)
Dewpoint: 24.0°C (75°F) [RH = 74%]
Pressure (altimeter): 29.94 inches Hg (1014.0 mb)
Winds: from the E (100 degrees) at 13 MPH (11 knots; 5.7 m/s)
Visibility: 6 or more miles (10+ km)
Ceiling: at least 12,000 feet AGL
Clouds: scattered clouds at 1600 feet AGL
Weather: no significant weather observed at this time

METAR text: LEAL 191300Z 10011KT 060V150 9999 FEW018 30/23 Q1014 NOSIG
Conditions at: LEAL (ALICANTE/EL ALTE, ES) observed 1300 UTC 19 August 2019
Temperature: 30.0°C (86°F)
Dewpoint: 23.0°C (73°F) [RH = 66%]
Pressure (altimeter): 29.94 inches Hg (1014.0 mb)
Winds: from the E (100 degrees) at 13 MPH (11 knots; 5.7 m/s)
Visibility: 6 or more miles (10+ km)
Ceiling: at least 12,000 feet AGL
Clouds: few clouds at 1800 feet AGL
Weather: no significant weather observed at this time

METAR text: LEAL 191230Z 10010KT 070V170 9999 FEW020 29/23 Q1014 NOSIG
Conditions at: LEAL (ALICANTE/EL ALTE, ES) observed 1230 UTC 19 August 2019
Temperature: 29.0°C (84°F)
Dewpoint: 23.0°C (73°F) [RH = 70%]
Pressure (altimeter): 29.94 inches Hg (1014.0 mb)
Winds: from the E (100 degrees) at 12 MPH (10 knots; 5.1 m/s)
Visibility: 6 or more miles (10+ km)
Ceiling: at least 12,000 feet AGL
Clouds: few clouds at 2000 feet AGL
Weather: no significant weather observed at this time

METAR text: LEAL 191200Z 10010KT 070V150 9999 FEW020 30/23 Q1014 NOSIG
Conditions at: LEAL (ALICANTE/EL ALTE, ES) observed 1200 UTC 19 August 2019
Temperature: 30.0°C (86°F)
Dewpoint: 23.0°C (73°F) [RH = 66%]
Pressure (altimeter): 29.94 inches Hg (1014.0 mb)
Winds: from the E (100 degrees) at 12 MPH (10 knots; 5.1 m/s)
Visibility: 6 or more miles (10+ km)
Ceiling: at least 12,000 feet AGL
Clouds: few clouds at 2000 feet AGL
Weather: no significant weather observed at this time

METAR text: LEAL 191130Z 10010KT 070V150 CAVOK 30/23 Q1014 NOSIG
Conditions at: LEAL (ALICANTE/EL ALTE, ES) observed 1130 UTC 19 August 2019
Temperature: 30.0°C (86°F)
Dewpoint: 23.0°C (73°F) [RH = 66%]
Pressure (altimeter): 29.94 inches Hg (1014.0 mb)
Winds: from the E (100 degrees) at 12 MPH (10 knots; 5.1 m/s)
Visibility: 6 or more miles (10+ km)
Ceiling: ceiling and visibility are OK
Clouds: unknown
Weather: no significant weather observed at this time

METAR text: LEAL 191100Z 10009KT 070V150 CAVOK 29/23 Q1014 NOSIG
Conditions at: LEAL (ALICANTE/EL ALTE, ES) observed 1100 UTC 19 August 2019
Temperature: 29.0°C (84°F)
Dewpoint: 23.0°C (73°F) [RH = 70%]
Pressure (altimeter): 29.94 inches Hg (1014.0 mb)
Winds: from the E (100 degrees) at 10 MPH (9 knots; 4.6 m/s)
Visibility: 6 or more miles (10+ km)
Ceiling: ceiling and visibility are OK
Clouds: unknown
Weather: no significant weather observed at this time

METAR text: LEAL 191030Z 10010KT 060V140 9999 FEW014 29/23 Q1014 NOSIG
Conditions at: LEAL (ALICANTE/EL ALTE, ES) observed 1030 UTC 19 August 2019
Temperature: 29.0°C (84°F)
Dewpoint: 23.0°C (73°F) [RH = 70%]
Pressure (altimeter): 29.94 inches Hg (1014.0 mb)
Winds: from the E (100 degrees) at 12 MPH (10 knots; 5.1 m/s)
Visibility: 6 or more miles (10+ km)
Ceiling: at least 12,000 feet AGL
Clouds: few clouds at 1400 feet AGL
Weather: no significant weather observed at this time

METAR text: LEAL 191000Z 08010KT 050V120 9999 FEW014 29/23 Q1014 NOSIG
Conditions at: LEAL (ALICANTE/EL ALTE, ES) observed 1000 UTC 19 August 2019
Temperature: 29.0°C (84°F)
Dewpoint: 23.0°C (73°F) [RH = 70%]
Pressure (altimeter): 29.94 inches Hg (1014.0 mb)
Winds: from the E (80 degrees) at 12 MPH (10 knots; 5.1 m/s)
Visibility: 6 or more miles (10+ km)
Ceiling: at least 12,000 feet AGL
Clouds: few clouds at 1400 feet AGL
Weather: no significant weather observed at this time

METAR text: LEAL 190930Z 08011KT 9999 FEW012 29/23 Q1014 NOSIG
Conditions at: LEAL (ALICANTE/EL ALTE, ES) observed 0930 UTC 19 August 2019
Temperature: 29.0°C (84°F)
Dewpoint: 23.0°C (73°F) [RH = 70%]
Pressure (altimeter): 29.94 inches Hg (1014.0 mb)
Winds: from the E (80 degrees) at 13 MPH (11 knots; 5.7 m/s)
Visibility: 6 or more miles (10+ km)
Ceiling: at least 12,000 feet AGL
Clouds: few clouds at 1200 feet AGL
Weather: no significant weather observed at this time

METAR text: LEAL 190900Z 07010KT 040V100 9999 FEW010 SCT014 29/23 Q1014 NOSIG
Conditions at: LEAL (ALICANTE/EL ALTE, ES) observed 0900 UTC 19 August 2019
Temperature: 29.0°C (84°F)
Dewpoint: 23.0°C (73°F) [RH = 70%]
Pressure (altimeter): 29.94 inches Hg (1014.0 mb)
Winds: from the ENE (70 degrees) at 12 MPH (10 knots; 5.1 m/s)
Visibility: 6 or more miles (10+ km)
Ceiling: at least 12,000 feet AGL
Clouds: few clouds at 1000 feet AGL
scattered clouds at 1400 feet AGL
Weather: no significant weather observed at this time

Forecast for: LEAL (ALICANTE/EL ALTE, ES)
Text: TAF LEAL 201700Z 2018/2118 06014KT 9999 SCT016 TX31/2112Z TN23/2106Z
Forecast period: 1800 UTC 20 August 2019 to 1800 UTC 21 August 2019
Forecast type: FROM: standard forecast or significant change
Winds: from the ENE (60 degrees) at 16 MPH (14 knots; 7.2 m/s)
Visibility: 6 or more miles 10+ km)
Ceiling: at least 12,000 feet AGL
Clouds: scattered clouds at 1600 feet AGL
Weather: no significant weather forecast for this period
Text: TEMPO 2018/2023 06018G30KT
Forecast period: 1800 to 2300 UTC 20 August 2019
Forecast type: TEMPORARY: The following changes expected for less than half the time period
Winds: from the ENE (60 degrees) at 21 MPH (18 knots; 9.3 m/s)
gusting to 34 MPH (30 knots; 15.4 m/s)
Visibility: missing
Ceiling: unknown
Clouds: missing
Weather: no significant weather forecast for this period
Text: PROB30
Forecast period: 1800 UTC 20 August 2019 to 0900 UTC 21 August 2019
Forecast type: TEMPORARY: The following changes expected for less than half the time period
Visibility: 1.86 miles (2.99 km)
Ceiling: 1400 feet AGL
Clouds: broken clouds at 1400 feet AGL
few clouds at 2000 feet AGL
Weather: TSRA  (rain associated with thunderstorm(s))